Time;durP1;ratioP1;P1;durP2;ratioP2;P2;SDS_P1;SDS_P2;PMS_P1;PMS_P2;Temp;Humidity;BMP_temperature;BMP_pressure;BME280_temperature;BME280_humidity;BME280_pressure;Samples;Min_cycle;Max_cycle;Signal;HPM_P1;HPM_P2
2022/06/04 00:00:50;;;;;;;7.40;6.75;;;19.70;99.90;;;;;;5012521;28;20026;-45
2022/06/04 00:03:16;;;;;;;9.10;6.95;;;19.70;99.90;;;;;;5012506;28;20109;-49
2022/06/04 00:05:44;;;;;;;10.23;7.43;;;19.70;99.90;;;;;;5011976;28;20573;-47
2022/06/04 00:08:11;;;;;;;8.32;7.32;;;19.60;99.90;;;;;;5011910;28;20029;-44
2022/06/04 00:16:16;;;;;;;7.80;5.72;;;19.70;99.90;;;;;;5012404;28;20025;-48
2022/06/04 00:18:43;;;;;;;8.30;5.40;;;19.60;99.90;;;;;;5016802;28;20030;-49
2022/06/04 00:21:11;;;;;;;6.13;5.07;;;19.60;99.90;;;;;;5018436;28;20026;-44
2022/06/04 00:23:37;;;;;;;7.15;5.65;;;19.50;99.90;;;;;;5018328;28;20032;-49
2022/06/04 00:26:07;;;;;;;7.90;5.85;;;19.50;99.90;;;;;;5000764;28;20109;-45
2022/06/04 00:28:33;;;;;;;8.02;6.38;;;19.40;99.90;;;;;;5018658;28;20018;-50
2022/06/04 00:30:58;;;;;;;9.05;6.40;;;19.40;99.90;;;;;;5050733;23;20060;-47
2022/06/04 00:33:24;;;;;;;6.47;5.88;;;19.40;99.90;;;;;;5036631;28;20450;-46
2022/06/04 00:35:53;;;;;;;5.68;5.20;;;19.30;99.90;;;;;;5037931;28;20497;-46
2022/06/04 00:38:20;;;;;;;8.48;7.68;;;19.30;99.90;;;;;;5036378;28;20021;-50
2022/06/04 00:41:22;;;;;;;38.90;30.45;;;19.30;99.90;;;;;;5037702;28;20156;-45
2022/06/04 00:44:13;;;;;;;105.15;64.82;;;19.20;99.90;;;;;;5038085;28;20024;-48
2022/06/04 00:46:41;;;;;;;15.25;11.20;;;19.20;99.90;;;;;;5037850;28;20041;-45
2022/06/04 00:49:09;;;;;;;8.85;7.97;;;19.20;99.90;;;;;;5036423;28;20439;-44
2022/06/04 00:51:35;;;;;;;8.45;7.50;;;19.20;99.90;;;;;;5037466;28;20513;-47
2022/06/04 00:54:01;;;;;;;7.60;6.93;;;19.20;99.90;;;;;;5037739;28;20086;-45
2022/06/04 00:56:50;;;;;;;7.85;7.25;;;19.20;99.90;;;;;;5037815;28;20520;-45
2022/06/04 00:59:34;;;;;;;8.80;7.93;;;19.10;99.90;;;;;;5037717;28;20021;-45
2022/06/04 01:02:16;;;;;;;8.50;7.07;;;19.10;99.90;;;;;;5037954;28;20032;-47
2022/06/04 01:05:15;;;;;;;7.65;7.03;;;19.00;99.90;;;;;;5036666;28;20033;-45
2022/06/04 01:08:08;;;;;;;7.60;6.90;;;19.00;99.90;;;;;;5037645;28;20022;-44
2022/06/04 01:10:43;;;;;;;9.88;8.18;;;19.00;99.90;;;;;;5037462;28;20393;-46
2022/06/04 01:13:30;;;;;;;10.35;9.32;;;19.00;99.90;;;;;;5037698;28;20055;-44
2022/06/04 01:16:21;;;;;;;14.18;9.90;;;18.80;99.90;;;;;;5037732;28;20035;-44
2022/06/04 01:19:01;;;;;;;13.50;9.38;;;18.80;99.90;;;;;;5037524;28;20123;-49
2022/06/04 01:21:38;;;;;;;8.73;7.82;;;18.70;99.90;;;;;;5037412;28;20060;-45
2022/06/04 01:24:36;;;;;;;8.25;7.63;;;18.70;99.90;;;;;;5037590;28;20067;-44
2022/06/04 01:27:05;;;;;;;8.68;7.88;;;18.70;99.90;;;;;;5037229;28;20569;-46
2022/06/04 01:29:36;;;;;;;14.85;9.88;;;18.70;99.90;;;;;;5034830;28;20057;-45
2022/06/04 01:32:16;;;;;;;12.07;9.77;;;18.70;99.90;;;;;;5034173;28;20087;-45
2022/06/04 01:35:01;;;;;;;8.30;7.60;;;18.70;99.90;;;;;;5034714;28;20025;-46
2022/06/04 01:37:47;;;;;;;11.52;7.57;;;18.60;99.90;;;;;;5034002;28;20026;-45
2022/06/04 01:43:05;;;;;;;9.50;7.95;;;18.60;99.90;;;;;;5034157;28;20029;-46
2022/06/04 01:45:32;;;;;;;9.85;8.98;;;18.70;99.90;;;;;;5034121;28;20021;-47
2022/06/04 01:48:01;;;;;;;10.57;9.13;;;18.70;99.90;;;;;;5032686;28;20029;-47
2022/06/04 01:50:35;;;;;;;9.65;8.63;;;18.70;99.90;;;;;;5034163;28;20032;-45
2022/06/04 01:53:03;;;;;;;8.75;7.95;;;18.80;99.90;;;;;;5032788;28;20456;-49
2022/06/04 01:55:56;;;;;;;10.13;9.18;;;18.80;99.90;;;;;;5032860;28;20018;-45
2022/06/04 01:58:27;;;;;;;9.48;7.00;;;18.80;99.90;;;;;;5032527;28;20025;-44
2022/06/04 02:01:03;;;;;;;8.07;7.32;;;18.70;99.90;;;;;;5033779;28;20121;-45
2022/06/04 02:03:44;;;;;;;11.30;8.98;;;18.70;99.90;;;;;;5033755;28;20030;-46
2022/06/04 02:06:24;;;;;;;12.23;8.88;;;18.70;99.90;;;;;;5033823;28;20112;-46
2022/06/04 02:09:00;;;;;;;11.60;9.07;;;18.70;99.90;;;;;;5033368;28;20497;-45
2022/06/04 02:11:26;;;;;;;9.85;8.95;;;18.60;99.90;;;;;;5032956;28;20075;-45
2022/06/04 02:13:57;;;;;;;13.80;8.70;;;18.60;99.90;;;;;;5033758;28;20017;-44
2022/06/04 02:16:30;;;;;;;10.38;9.48;;;18.50;99.90;;;;;;5034086;28;20037;-46
2022/06/04 02:18:57;;;;;;;14.05;9.70;;;18.40;99.90;;;;;;5033338;28;20476;-47
2022/06/04 02:21:24;;;;;;;12.98;9.93;;;18.40;99.90;;;;;;5033239;28;20095;-45
2022/06/04 02:23:50;;;;;;;10.80;9.70;;;18.40;99.90;;;;;;5033312;28;20022;-47
2022/06/04 02:26:17;;;;;;;8.50;7.78;;;18.30;99.90;;;;;;5033281;28;20064;-48
2022/06/04 02:28:43;;;;;;;10.30;8.73;;;18.30;99.90;;;;;;5033044;28;20030;-47
2022/06/04 02:31:14;;;;;;;9.80;8.93;;;18.30;99.90;;;;;;5032918;28;20083;-44
2022/06/04 02:33:55;;;;;;;11.45;9.65;;;18.30;99.90;;;;;;5033457;28;20028;-47
2022/06/04 02:36:48;;;;;;;10.48;9.57;;;18.30;99.90;;;;;;5033345;28;20021;-47
2022/06/04 02:39:24;;;;;;;11.52;10.32;;;18.30;99.90;;;;;;5033199;28;20100;-45
2022/06/04 02:42:17;;;;;;;12.57;9.93;;;18.30;99.90;;;;;;5032748;28;20057;-44
2022/06/04 02:44:57;;;;;;;13.40;10.55;;;18.30;99.90;;;;;;5032782;28;20115;-45
2022/06/04 02:47:38;;;;;;;9.82;9.02;;;18.20;99.90;;;;;;5032797;28;20029;-46
2022/06/04 02:50:51;;;;;;;9.95;9.05;;;18.20;99.90;;;;;;5032831;28;20028;-45
2022/06/04 02:53:18;;;;;;;11.52;10.30;;;18.10;99.90;;;;;;5022892;28;20064;-45
2022/06/04 02:55:55;;;;;;;11.20;10.02;;;18.00;99.90;;;;;;5032807;28;20033;-45
2022/06/04 02:58:22;;;;;;;12.65;11.40;;;18.00;99.90;;;;;;5032506;28;20105;-46
2022/06/04 03:00:51;;;;;;;11.40;10.20;;;18.00;99.90;;;;;;5032586;28;20029;-44
2022/06/04 03:03:17;;;;;;;11.55;10.55;;;18.00;99.90;;;;;;5032671;28;20031;-44
2022/06/04 03:05:54;;;;;;;14.70;10.07;;;17.90;99.90;;;;;;5032485;28;20443;-46
2022/06/04 03:08:20;;;;;;;11.07;10.05;;;17.90;99.90;;;;;;5032238;28;20025;-44
2022/06/04 03:10:47;;;;;;;10.82;9.77;;;17.80;99.90;;;;;;5031953;28;20044;-46
2022/06/04 03:13:12;;;;;;;11.32;10.25;;;17.80;99.90;;;;;;5032342;28;20026;-44
2022/06/04 03:15:38;;;;;;;15.80;10.40;;;17.70;99.90;;;;;;5032360;28;20546;-49
2022/06/04 03:18:03;;;;;;;11.77;10.57;;;17.70;99.90;;;;;;5032073;28;20041;-46
2022/06/04 03:20:29;;;;;;;11.68;10.57;;;17.70;99.90;;;;;;5032242;28;20474;-44
2022/06/04 03:22:55;;;;;;;17.27;11.88;;;17.70;99.90;;;;;;5032029;28;20036;-46
2022/06/04 03:25:21;;;;;;;13.80;10.32;;;17.70;99.90;;;;;;5032289;28;20096;-48
2022/06/04 03:27:47;;;;;;;10.85;9.80;;;17.70;99.90;;;;;;5032361;28;20033;-45
2022/06/04 03:30:13;;;;;;;11.48;10.32;;;17.70;99.90;;;;;;5032499;28;20022;-45
2022/06/04 03:32:40;;;;;;;13.13;9.68;;;17.70;99.90;;;;;;5032146;28;20459;-46
2022/06/04 03:35:06;;;;;;;12.30;11.05;;;17.70;99.90;;;;;;5032052;28;20028;-45
2022/06/04 03:37:33;;;;;;;11.45;10.35;;;17.70;99.90;;;;;;5032871;28;20036;-44
2022/06/04 03:39:58;;;;;;;11.50;10.48;;;17.60;99.90;;;;;;5032154;28;20473;-44
2022/06/04 03:42:24;;;;;;;13.43;11.00;;;17.60;99.90;;;;;;5032146;28;20075;-44
2022/06/04 03:44:49;;;;;;;12.70;11.20;;;17.60;99.90;;;;;;5032010;28;20029;-44
2022/06/04 03:47:16;;;;;;;11.75;10.65;;;17.60;99.90;;;;;;5031640;28;20033;-44
2022/06/04 03:49:42;;;;;;;12.18;10.82;;;17.70;99.90;;;;;;5031848;28;20400;-46
2022/06/04 03:52:11;;;;;;;11.43;10.27;;;17.60;99.90;;;;;;5031010;28;20048;-44
2022/06/04 03:54:52;;;;;;;11.75;10.60;;;17.70;99.90;;;;;;5031713;28;20018;-46
2022/06/04 04:00:14;;;;;;;11.10;10.05;;;17.70;99.90;;;;;;5031946;28;20041;-46
2022/06/04 04:02:42;;;;;;;11.68;10.15;;;17.80;99.90;;;;;;5030337;28;20311;-44
2022/06/04 04:05:10;;;;;;;10.32;8.95;;;17.80;99.90;;;;;;5031636;28;20033;-46
2022/06/04 04:07:36;;;;;;;10.43;9.50;;;17.80;99.90;;;;;;5031306;28;20033;-44
2022/06/04 04:10:02;;;;;;;11.63;9.10;;;17.90;99.90;;;;;;5031543;28;20057;-45
2022/06/04 04:12:28;;;;;;;10.77;9.02;;;17.90;99.90;;;;;;5031228;28;20025;-44
2022/06/04 04:14:54;;;;;;;9.35;8.50;;;17.80;99.90;;;;;;5031661;28;20025;-45
2022/06/04 04:17:22;;;;;;;9.95;9.15;;;17.80;99.90;;;;;;5031228;28;20022;-45
2022/06/04 04:19:48;;;;;;;9.38;8.27;;;17.80;99.90;;;;;;5031658;28;20067;-45
2022/06/04 04:22:13;;;;;;;9.20;8.35;;;17.80;99.90;;;;;;5031529;28;20123;-45
2022/06/04 04:24:39;;;;;;;10.50;8.80;;;17.90;99.90;;;;;;5031685;28;20052;-46
2022/06/04 04:27:05;;;;;;;9.70;8.80;;;18.00;99.90;;;;;;5031360;28;20064;-44
2022/06/04 04:29:30;;;;;;;9.75;8.75;;;18.00;99.90;;;;;;5031776;28;20374;-44
2022/06/04 04:31:56;;;;;;;10.88;8.60;;;18.10;99.90;;;;;;5031699;28;20037;-44
2022/06/04 04:34:21;;;;;;;10.93;8.07;;;18.10;99.90;;;;;;5030821;28;20056;-44
2022/06/04 04:36:46;;;;;;;10.93;9.05;;;18.20;99.90;;;;;;5032767;28;20025;-46
2022/06/04 04:39:12;;;;;;;9.15;8.27;;;18.20;99.90;;;;;;5032419;28;20030;-45
2022/06/04 04:41:38;;;;;;;9.45;8.52;;;18.30;99.90;;;;;;5033067;28;20033;-44
2022/06/04 04:44:03;;;;;;;8.63;7.72;;;18.40;99.90;;;;;;5031571;28;20132;-43
2022/06/04 04:46:29;;;;;;;8.27;7.47;;;18.50;99.90;;;;;;5031321;28;20106;-44
2022/06/04 04:48:55;;;;;;;10.50;7.20;;;18.70;99.90;;;;;;5031367;28;20432;-46
2022/06/04 04:51:24;;;;;;;9.02;8.07;;;18.90;99.90;;;;;;5031235;28;20029;-44
2022/06/04 04:53:50;;;;;;;7.43;6.72;;;19.20;99.90;;;;;;5031302;28;20496;-45
2022/06/04 04:56:18;;;;;;;9.57;6.22;;;19.60;99.90;;;;;;5031246;28;20071;-43
2022/06/04 04:58:44;;;;;;;6.85;6.25;;;20.10;99.90;;;;;;5029637;28;20120;-44
2022/06/04 05:01:18;;;;;;;8.43;5.45;;;20.50;99.90;;;;;;5030957;28;20025;-44
2022/06/04 05:03:44;;;;;;;7.65;6.68;;;20.70;99.90;;;;;;5032417;28;20021;-45
2022/06/04 05:06:11;;;;;;;6.80;6.20;;;20.80;99.90;;;;;;5034925;28;20025;-42
2022/06/04 05:08:36;;;;;;;5.50;5.00;;;20.90;99.90;;;;;;5034434;28;20021;-45
2022/06/04 05:11:07;;;;;;;7.20;4.97;;;20.80;99.90;;;;;;5034573;28;20029;-44
2022/06/04 05:13:33;;;;;;;5.53;5.05;;;20.80;99.90;;;;;;5034825;28;20035;-45
2022/06/04 05:15:58;;;;;;;5.78;5.28;;;20.70;99.90;;;;;;5033518;28;20021;-44
2022/06/04 05:18:24;;;;;;;8.05;5.40;;;20.60;99.90;;;;;;5034421;28;20032;-47
2022/06/04 05:20:49;;;;;;;7.47;6.55;;;20.50;99.90;;;;;;5034630;28;20140;-45
2022/06/04 05:23:15;;;;;;;5.97;5.57;;;20.50;99.90;;;;;;5034781;28;20021;-46
2022/06/04 05:25:40;;;;;;;6.32;5.72;;;20.60;99.90;;;;;;5034770;28;20508;-44
2022/06/04 05:28:06;;;;;;;6.70;6.10;;;20.80;99.90;;;;;;5034371;28;20025;-45
2022/06/04 05:30:31;;;;;;;5.75;5.25;;;21.30;99.90;;;;;;5034305;28;20112;-44
2022/06/04 05:32:57;;;;;;;4.80;4.45;;;21.90;99.90;;;;;;5034342;28;20025;-44
2022/06/04 05:35:22;;;;;;;6.63;4.55;;;22.50;99.90;;;;;;5034368;28;20112;-45
2022/06/04 05:37:49;;;;;;;4.80;4.40;;;23.10;99.90;;;;;;5034169;28;20076;-44
2022/06/04 05:40:14;;;;;;;5.20;4.70;;;23.90;99.90;;;;;;5033080;28;20484;-43
2022/06/04 05:42:41;;;;;;;5.10;4.05;;;24.40;99.90;;;;;;5034341;28;20021;-45
2022/06/04 05:45:07;;;;;;;6.18;4.47;;;24.70;99.90;;;;;;5034516;28;20485;-43
2022/06/04 05:47:32;;;;;;;5.20;3.85;;;25.20;99.90;;;;;;5034229;28;20124;-44
2022/06/04 05:49:58;;;;;;;5.60;3.63;;;25.00;99.90;;;;;;5034295;28;20464;-44
2022/06/04 05:52:24;;;;;;;3.97;3.65;;;24.90;99.90;;;;;;5034100;28;20026;-44
2022/06/04 05:54:49;;;;;;;3.65;3.35;;;24.60;99.90;;;;;;5034277;28;20025;-44
2022/06/04 05:57:15;;;;;;;4.72;4.15;;;24.20;99.90;;;;;;5034374;28;20029;-44
2022/06/04 05:59:40;;;;;;;4.28;3.97;;;24.10;99.90;;;;;;5034212;28;20021;-43
2022/06/04 06:02:06;;;;;;;5.13;3.53;;;23.90;99.90;;;;;;5034040;28;20044;-45
2022/06/04 06:04:32;;;;;;;5.20;3.90;;;23.50;99.90;;;;;;5033933;28;20444;-44
2022/06/04 06:06:59;;;;;;;4.63;3.60;;;23.50;99.90;;;;;;5034356;28;20022;-47
2022/06/04 06:09:25;;;;;;;4.57;3.83;;;23.90;99.90;;;;;;5034193;28;20378;-46
2022/06/04 06:11:53;;;;;;;4.18;3.47;;;24.20;99.90;;;;;;5033280;28;20030;-44
2022/06/04 06:14:19;;;;;;;3.30;3.10;;;24.30;99.90;;;;;;5033677;28;20021;-47
2022/06/04 06:16:47;;;;;;;3.83;3.30;;;24.40;99.90;;;;;;5032733;28;20128;-45
2022/06/04 06:19:14;;;;;;;4.55;3.00;;;24.20;99.90;;;;;;5033690;28;20452;-44
2022/06/04 06:21:41;;;;;;;5.55;3.33;;;24.00;99.90;;;;;;5033342;28;20022;-43
2022/06/04 06:24:08;;;;;;;3.75;3.33;;;23.80;99.90;;;;;;5033446;28;20027;-48
2022/06/04 06:26:40;;;;;;;5.13;3.15;;;23.70;99.90;;;;;;5033317;28;20065;-44
2022/06/04 06:29:06;;;;;;;3.80;3.50;;;23.80;99.90;;;;;;5033029;28;20029;-41
2022/06/04 06:31:33;;;;;;;3.47;3.17;;;23.90;99.90;;;;;;5056793;23;20098;-47
2022/06/04 06:33:59;;;;;;;3.25;2.50;;;23.80;99.90;;;;;;5053934;28;20017;-48
2022/06/04 06:36:24;;;;;;;5.35;3.17;;;23.80;99.90;;;;;;5054091;28;20036;-44
2022/06/04 06:38:51;;;;;;;2.95;2.72;;;23.70;99.90;;;;;;5053199;28;20025;-44
2022/06/04 06:41:19;;;;;;;8.77;3.30;;;23.70;99.90;;;;;;5053532;28;20021;-50
2022/06/04 06:43:50;;;;;;;3.05;2.85;;;23.50;99.90;;;;;;5052165;28;20028;-44
2022/06/04 06:46:17;;;;;;;3.33;3.13;;;23.40;99.90;;;;;;5053696;28;20028;-45
2022/06/04 06:48:45;;;;;;;4.18;3.42;;;23.20;99.90;;;;;;5052486;28;20021;-46
2022/06/04 06:51:28;;;;;;;3.75;3.38;;;23.00;99.90;;;;;;5053171;28;20099;-46
2022/06/04 06:53:57;;;;;;;6.15;3.60;;;22.80;99.90;;;;;;5053824;28;20365;-48
2022/06/04 06:56:29;;;;;;;4.05;3.40;;;22.70;99.90;;;;;;5053462;28;20021;-43
2022/06/04 06:58:56;;;;;;;4.05;3.67;;;22.60;99.90;;;;;;5053005;28;20492;-44
2022/06/04 07:01:24;;;;;;;3.10;2.90;;;22.60;99.90;;;;;;5053606;28;20396;-45
2022/06/04 07:03:49;;;;;;;7.95;3.63;;;22.50;99.90;;;;;;5053875;28;20423;-48
2022/06/04 07:06:15;;;;;;;4.10;3.10;;;22.40;99.90;;;;;;5053726;28;20025;-48
2022/06/04 07:08:42;;;;;;;3.78;3.45;;;22.50;99.90;;;;;;5052991;28;20017;-44
2022/06/04 07:11:08;;;;;;;6.47;3.22;;;22.40;99.90;;;;;;5053313;28;20024;-48
2022/06/04 07:13:34;;;;;;;3.65;3.35;;;22.30;99.90;;;;;;5053519;28;20033;-48
2022/06/04 07:15:59;;;;;;;3.65;3.35;;;22.20;99.90;;;;;;5053617;28;20082;-47
2022/06/04 07:18:25;;;;;;;5.13;3.30;;;22.20;99.90;;;;;;5051656;28;20081;-48
2022/06/04 07:20:51;;;;;;;4.82;3.95;;;22.10;99.90;;;;;;5051755;28;20032;-45
2022/06/04 07:23:18;;;;;;;3.50;3.30;;;22.00;99.90;;;;;;5053338;28;20471;-46
2022/06/04 07:25:45;;;;;;;3.55;3.33;;;22.00;99.90;;;;;;5053679;28;20056;-47
2022/06/04 07:28:12;;;;;;;3.75;3.45;;;21.90;99.90;;;;;;5052062;28;20040;-49
2022/06/04 07:30:38;;;;;;;4.32;2.97;;;21.90;99.90;;;;;;5051069;28;20396;-50
2022/06/04 07:33:04;;;;;;;5.28;3.75;;;21.80;99.90;;;;;;5052898;28;20104;-48
2022/06/04 07:35:29;;;;;;;3.45;3.15;;;21.80;99.90;;;;;;5053237;28;20060;-46
2022/06/04 07:37:55;;;;;;;9.50;5.65;;;21.90;99.90;;;;;;5052960;28;20100;-45
2022/06/04 07:40:21;;;;;;;7.60;4.13;;;22.10;99.90;;;;;;5052777;28;20021;-44
2022/06/04 07:42:47;;;;;;;11.10;4.03;;;22.20;99.90;;;;;;5052894;28;20025;-46
2022/06/04 07:45:13;;;;;;;9.50;3.80;;;22.40;99.90;;;;;;5052576;28;20164;-51
2022/06/04 07:47:41;;;;;;;3.90;3.50;;;22.50;99.90;;;;;;5052533;28;20488;-44
2022/06/04 07:50:08;;;;;;;3.97;3.30;;;22.50;99.90;;;;;;5053002;28;20040;-45
2022/06/04 07:52:34;;;;;;;3.67;3.28;;;22.60;99.90;;;;;;5052646;28;20028;-45
2022/06/04 07:55:00;;;;;;;4.68;3.55;;;22.70;99.90;;;;;;5052470;28;20025;-48
2022/06/04 07:57:26;;;;;;;4.35;4.03;;;22.90;99.90;;;;;;5051844;28;20020;-49
2022/06/04 07:59:52;;;;;;;4.30;3.90;;;22.90;99.90;;;;;;5052083;28;20033;-47
2022/06/04 08:02:17;;;;;;;4.40;4.00;;;22.90;99.90;;;;;;5051651;28;20154;-46
2022/06/04 08:04:43;;;;;;;4.60;4.15;;;22.90;99.90;;;;;;5051875;28;20025;-50
2022/06/04 08:07:08;;;;;;;4.97;4.57;;;22.80;99.90;;;;;;5052468;28;20029;-49
2022/06/04 08:09:34;;;;;;;3.88;3.58;;;22.70;99.90;;;;;;5050706;28;20032;-49
2022/06/04 08:12:00;;;;;;;4.20;3.90;;;22.90;99.90;;;;;;5051597;28;20037;-47
2022/06/04 08:14:26;;;;;;;4.15;3.85;;;23.00;99.90;;;;;;5052041;28;20037;-48
2022/06/04 08:16:58;;;;;;;5.05;4.38;;;23.20;99.90;;;;;;5051869;28;20444;-50
2022/06/04 08:19:27;;;;;;;4.30;3.90;;;23.40;99.90;;;;;;5052079;28;20473;-47
2022/06/04 08:21:53;;;;;;;5.25;4.43;;;23.50;99.90;;;;;;5052960;28;20025;-49
2022/06/04 08:24:20;;;;;;;5.30;4.57;;;23.60;99.90;;;;;;5052568;28;20025;-49
2022/06/04 08:26:47;;;;;;;7.43;4.15;;;23.80;99.90;;;;;;5052647;28;20024;-43
2022/06/04 08:29:13;;;;;;;4.78;3.63;;;24.20;99.90;;;;;;5052904;28;20098;-48
2022/06/04 08:31:39;;;;;;;5.05;4.65;;;24.30;99.90;;;;;;5052446;28;20037;-46
2022/06/04 08:34:05;;;;;;;4.35;3.95;;;24.40;99.90;;;;;;5052740;28;20025;-49
2022/06/04 08:36:31;;;;;;;4.05;3.75;;;24.60;99.90;;;;;;5052248;28;20025;-47
2022/06/04 08:38:57;;;;;;;4.82;4.43;;;24.80;99.90;;;;;;5053414;28;20431;-46
2022/06/04 08:41:48;;;;;;;4.15;3.85;;;25.10;99.90;;;;;;5057049;28;20096;-46
2022/06/04 08:44:21;;;;;;;6.90;4.40;;;25.50;99.90;;;;;;5056874;28;20028;-48
2022/06/04 08:46:51;;;;;;;5.07;4.68;;;25.80;99.70;;;;;;5056520;28;20017;-46
2022/06/04 08:49:30;;;;;;;4.15;3.75;;;26.00;99.30;;;;;;5056659;28;20198;-49
2022/06/04 08:51:57;;;;;;;4.47;4.00;;;26.10;99.00;;;;;;5056868;28;20287;-47
2022/06/04 09:00:24;;;;;;;7.07;4.22;;;26.00;99.30;;;;;;5056185;28;20088;-46
2022/06/04 09:03:12;;;;;;;6.43;4.35;;;26.00;99.10;;;;;;5056043;28;20036;-50
2022/06/04 09:06:14;;;;;;;5.32;4.72;;;25.90;99.10;;;;;;5056441;28;20024;-46
2022/06/04 09:08:53;;;;;;;6.22;4.47;;;26.00;99.40;;;;;;5055557;28;20100;-47
2022/06/04 09:11:37;;;;;;;12.25;4.97;;;25.80;99.00;;;;;;5055377;28;20021;-48
2022/06/04 09:14:14;;;;;;;4.95;4.55;;;25.60;99.30;;;;;;5055251;28;20021;-46
2022/06/04 09:16:47;;;;;;;5.38;4.78;;;25.50;99.50;;;;;;5056054;28;20025;-48
2022/06/04 09:19:22;;;;;;;4.30;4.00;;;25.30;99.50;;;;;;5055663;28;20055;-52
2022/06/04 09:21:49;;;;;;;4.65;4.25;;;25.40;99.70;;;;;;5055185;28;20032;-47
2022/06/04 09:24:14;;;;;;;5.50;5.10;;;25.60;99.60;;;;;;5054808;28;20407;-47
2022/06/04 09:26:51;;;;;;;5.10;4.60;;;25.80;99.10;;;;;;5055065;28;20242;-48
2022/06/04 09:29:28;;;;;;;4.13;3.65;;;25.90;98.80;;;;;;5055001;28;20029;-49
2022/06/04 09:32:06;;;;;;;4.32;4.00;;;26.10;98.80;;;;;;5055025;28;20170;-50
2022/06/04 09:34:38;;;;;;;6.45;3.80;;;26.40;98.20;;;;;;5055248;28;20021;-44
2022/06/04 09:37:08;;;;;;;4.78;4.38;;;26.30;97.70;;;;;;5054529;28;20025;-44
2022/06/04 09:39:36;;;;;;;5.43;3.25;;;26.20;97.60;;;;;;5055049;28;20025;-50
2022/06/04 09:42:11;;;;;;;6.88;3.20;;;25.80;97.50;;;;;;5055411;28;20228;-51
2022/06/04 09:44:47;;;;;;;5.38;4.10;;;25.80;97.60;;;;;;5055777;28;20033;-46
2022/06/04 09:47:47;;;;;;;5.78;4.05;;;25.70;98.20;;;;;;5055628;28;20037;-46
2022/06/04 09:50:35;;;;;;;3.53;3.33;;;25.70;98.70;;;;;;5053724;28;20118;-46
2022/06/04 09:53:21;;;;;;;3.88;3.58;;;25.60;97.60;;;;;;5055802;28;20033;-44
2022/06/04 09:55:51;;;;;;;3.30;3.00;;;25.40;97.40;;;;;;5054916;28;20025;-46
2022/06/04 09:58:20;;;;;;;3.95;3.33;;;25.20;97.50;;;;;;5054604;28;20021;-49
2022/06/04 10:01:03;;;;;;;14.02;11.70;;;25.20;98.00;;;;;;5054855;28;20427;-47
2022/06/04 10:03:31;;;;;;;24.75;18.48;;;25.30;98.20;;;;;;5054482;28;20024;-45
2022/06/04 10:06:04;;;;;;;3.60;2.92;;;25.30;97.80;;;;;;5054432;28;20028;-50
2022/06/04 10:09:54;;;;;;;3.38;3.13;;;25.40;97.10;;;;;;5054113;28;20491;-49
2022/06/04 10:11:20;;;;;;;3.78;2.88;;;25.40;97.00;;;;;;5053971;28;20025;-47
2022/06/04 10:13:48;;;;;;;2.90;2.60;;;25.60;96.90;;;;;;5054837;28;20017;-50
2022/06/04 10:16:19;;;;;;;2.67;2.55;;;25.50;96.20;;;;;;5054557;28;20032;-52
2022/06/04 10:19:01;;;;;;;2.88;2.67;;;25.30;96.10;;;;;;5054360;28;20416;-45
2022/06/04 10:21:32;;;;;;;4.50;3.47;;;25.20;96.40;;;;;;5053956;28;20071;-48
2022/06/04 10:24:07;;;;;;;2.40;2.22;;;25.30;96.50;;;;;;5054125;28;20029;-48
2022/06/04 10:26:41;;;;;;;;;;;25.30;95.50;;;;;;5054526;28;20398;-49
2022/06/04 10:29:26;;;;;;;5.30;2.25;;;25.20;96.30;;;;;;5053265;28;19909;-46
2022/06/04 10:32:17;;;;;;;3.72;2.50;;;25.30;96.80;;;;;;5053496;28;20037;-51
2022/06/04 10:35:27;;;;;;;2.60;2.40;;;25.60;96.30;;;;;;5053435;28;20033;-50
2022/06/04 10:38:18;;;;;;;10.13;2.42;;;25.80;95.70;;;;;;5045374;28;20037;-45
2022/06/04 10:41:02;;;;;;;2.50;2.30;;;25.80;95.30;;;;;;5053870;28;20117;-48
2022/06/04 10:44:00;;;;;;;3.37;3.07;;;25.90;95.50;;;;;;5052915;28;20398;-50
2022/06/04 10:46:40;;;;;;;2.55;2.35;;;25.90;95.20;;;;;;5053165;28;20025;-50
2022/06/04 10:49:33;;;;;;;7.88;2.25;;;25.80;94.80;;;;;;5052918;28;20025;-47
2022/06/04 10:52:15;;;;;;;2.50;2.30;;;25.90;95.30;;;;;;5052891;28;20151;-47
2022/06/04 10:54:49;;;;;;;3.38;3.05;;;25.80;96.90;;;;;;5053189;28;20214;-51
2022/06/04 10:57:26;;;;;;;3.70;3.33;;;25.90;96.90;;;;;;5052630;28;20025;-46
2022/06/04 11:00:04;;;;;;;4.43;4.03;;;25.90;96.40;;;;;;5052622;28;20401;-47
2022/06/04 11:02:46;;;;;;;3.47;3.28;;;25.90;96.10;;;;;;5052429;28;20063;-50
2022/06/04 11:05:42;;;;;;;5.43;3.70;;;25.90;96.50;;;;;;5051330;28;20082;-50
2022/06/04 11:08:16;;;;;;;6.90;3.85;;;25.90;97.20;;;;;;5052196;28;20032;-49
2022/06/04 11:11:10;;;;;;;5.18;4.07;;;26.00;96.90;;;;;;5052120;28;20079;-47
2022/06/04 11:13:47;;;;;;;3.80;3.47;;;26.00;96.80;;;;;;5052709;28;20397;-47
2022/06/04 11:16:33;;;;;;;3.20;3.00;;;26.00;97.00;;;;;;5052807;28;20104;-48
2022/06/04 11:19:10;;;;;;;3.88;3.58;;;25.90;96.00;;;;;;5052721;28;20071;-46
2022/06/04 11:21:46;;;;;;;4.28;3.88;;;25.80;96.70;;;;;;5052702;28;20017;-48
2022/06/04 11:24:18;;;;;;;4.30;3.90;;;25.70;96.80;;;;;;5053062;28;20029;-46
2022/06/04 11:26:57;;;;;;;6.57;3.95;;;25.50;97.30;;;;;;5053362;28;20024;-49
2022/06/04 11:29:23;;;;;;;5.03;4.45;;;25.60;97.60;;;;;;5052458;28;20032;-51
2022/06/04 11:32:00;;;;;;;14.55;10.48;;;25.60;97.20;;;;;;5051757;28;20033;-48
2022/06/04 11:34:50;;;;;;;4.05;3.65;;;25.70;96.70;;;;;;5052478;28;20040;-48
2022/06/04 11:37:46;;;;;;;4.97;3.40;;;25.70;96.50;;;;;;5051889;28;20092;-49
2022/06/04 11:40:51;;;;;;;2.55;2.45;;;25.90;96.80;;;;;;5052527;28;20029;-49
2022/06/04 11:43:48;;;;;;;4.57;2.90;;;26.00;95.50;;;;;;5052253;28;20087;-48
2022/06/04 11:46:35;;;;;;;4.30;2.90;;;26.10;95.50;;;;;;5042979;28;20094;-47
2022/06/04 11:49:17;;;;;;;5.75;2.55;;;26.00;95.30;;;;;;5052525;28;20056;-49
2022/06/04 11:51:53;;;;;;;7.53;3.00;;;26.00;95.30;;;;;;5051989;28;20082;-49
2022/06/04 11:54:41;;;;;;;3.92;3.58;;;26.00;95.40;;;;;;5052189;28;20083;-49
2022/06/04 11:57:27;;;;;;;2.92;2.72;;;26.00;95.30;;;;;;5051837;28;20025;-50
2022/06/04 12:00:21;;;;;;;3.65;3.17;;;25.90;95.80;;;;;;5051982;28;20473;-47
2022/06/04 12:02:57;;;;;;;3.55;3.28;;;25.80;95.80;;;;;;5052272;28;20025;-49
2022/06/04 12:05:38;;;;;;;3.20;3.00;;;25.70;96.00;;;;;;5052371;28;20423;-48
2022/06/04 12:08:10;;;;;;;4.97;3.45;;;25.70;96.10;;;;;;5051979;28;20053;-47
2022/06/04 12:10:53;;;;;;;3.70;3.25;;;25.60;95.90;;;;;;5051392;28;20042;-49
2022/06/04 12:13:34;;;;;;;3.47;3.17;;;25.50;96.00;;;;;;5051311;28;20447;-48
2022/06/04 12:16:05;;;;;;;3.65;3.03;;;25.50;96.20;;;;;;5052318;28;20071;-48
2022/06/04 12:18:41;;;;;;;3.90;3.47;;;25.50;96.40;;;;;;5051755;28;20017;-48
2022/06/04 12:24:40;;;;;;;3.53;3.33;;;25.30;96.20;;;;;;5051760;28;20108;-49
2022/06/04 12:27:20;;;;;;;3.35;3.05;;;25.30;96.00;;;;;;5051512;28;20075;-49
2022/06/04 12:29:52;;;;;;;2.92;2.72;;;25.40;95.50;;;;;;5052757;28;20104;-50
2022/06/04 12:32:34;;;;;;;2.60;2.40;;;25.30;94.50;;;;;;5054543;28;20037;-52
2022/06/04 12:35:08;;;;;;;3.47;2.40;;;25.40;94.30;;;;;;5053474;28;20423;-45
2022/06/04 12:37:37;;;;;;;3.05;2.88;;;25.40;94.50;;;;;;5052815;28;20021;-48
2022/06/04 12:40:29;;;;;;;2.85;2.25;;;25.50;94.60;;;;;;5053977;28;20032;-50
2022/06/04 12:43:19;;;;;;;2.70;2.50;;;25.60;93.90;;;;;;5052524;28;20029;-47
2022/06/04 12:45:51;;;;;;;6.22;3.17;;;25.60;94.30;;;;;;5052677;28;20029;-50
2022/06/04 12:48:28;;;;;;;4.20;2.83;;;25.60;94.90;;;;;;5052958;28;20286;-48
2022/06/04 12:51:02;;;;;;;7.78;5.57;;;25.70;95.40;;;;;;5052571;28;20021;-50
2022/06/04 12:53:31;;;;;;;4.03;3.72;;;25.80;95.00;;;;;;5052613;28;20025;-46
2022/06/04 12:56:05;;;;;;;4.97;3.60;;;26.00;94.90;;;;;;5052508;28;20036;-48
2022/06/04 12:58:39;;;;;;;4.50;2.72;;;26.00;94.40;;;;;;5052959;28;20492;-48
2022/06/04 13:01:20;;;;;;;3.00;2.80;;;26.00;93.90;;;;;;5052836;28;20408;-50
2022/06/04 13:03:50;;;;;;;3.30;3.00;;;26.00;94.30;;;;;;5053741;28;20063;-51
2022/06/04 13:06:31;;;;;;;3.03;2.72;;;26.10;93.90;;;;;;5052834;28;20369;-48
2022/06/04 13:09:00;;;;;;;3.60;3.30;;;25.90;94.10;;;;;;5052622;28;20059;-45
2022/06/04 13:11:29;;;;;;;3.50;3.15;;;25.90;95.30;;;;;;5052455;28;20403;-50
2022/06/04 13:14:05;;;;;;;3.42;3.10;;;25.70;95.30;;;;;;5052578;28;20025;-48
2022/06/04 13:16:34;;;;;;;3.10;2.83;;;25.50;95.00;;;;;;5053424;28;20493;-48
2022/06/04 13:19:14;;;;;;;3.35;3.15;;;25.50;95.50;;;;;;5053428;28;20446;-48
2022/06/04 13:21:45;;;;;;;2.72;2.63;;;25.30;95.50;;;;;;5054015;28;20036;-52
2022/06/04 13:24:23;;;;;;;4.43;2.88;;;25.40;95.20;;;;;;5053350;28;20025;-53
2022/06/04 13:26:58;;;;;;;2.80;2.70;;;25.50;95.30;;;;;;5055744;28;20102;-52
2022/06/04 13:29:30;;;;;;;3.00;2.80;;;25.40;95.10;;;;;;5056279;28;20032;-49
2022/06/04 13:31:59;;;;;;;3.20;3.00;;;25.50;94.90;;;;;;5055781;28;20064;-53